Deruyter, New York
Current Conditions -  °F | °C
As of 10:55 PM on Thursday 18 Dec 2014 (Local Time) from KN03 Reporting Station
Unknown Precip Unknown Precip  
Wind Chill: 30°   Ceiling: 800
Heat Index: 30°   Visibility: 5mi
Dew Point: 28°   Wind: 3mph
Humidity: 93%   Direction: 310°NW
Pressure: 29.99"   Gusts: NA
Location:  42.7532°N, 75.8604°W
Report Text: KN03 190355Z AUTO 31003KT 5SM UP OVC008 M01/M02 A2999 RMK AO2
Loading
Personal Weather Stations






























Interactive Weather Map New forecast layout! Learn more

10-Day Weather Forecast

Advertisements
Track Severe Weather on mobile